Time;durP1;ratioP1;P1;durP2;ratioP2;P2;SDS_P1;SDS_P2;PMS_P1;PMS_P2;Temp;Humidity;BMP_temperature;BMP_pressure;BME280_temperature;BME280_humidity;BME280_pressure;Samples;Min_cycle;Max_cycle;Signal;HPM_P1;HPM_P2
2022/12/10 00:01:35;;;;;;;44.80;20.67;;;;;;;-2.99;100.00;100791.56;5068309;28;20385;-69
2022/12/10 00:04:01;;;;;;;41.53;19.38;;;;;;;-3.01;100.00;100790.84;5068630;28;20035;-69
2022/12/10 00:06:29;;;;;;;38.40;21.40;;;;;;;-2.99;100.00;100794.19;5068723;28;20045;-69
2022/12/10 00:08:55;;;;;;;41.40;20.10;;;;;;;-2.97;100.00;100793.13;5068793;28;20408;-69
2022/12/10 00:11:22;;;;;;;48.88;26.83;;;;;;;-2.93;100.00;100788.53;5069648;28;20024;-69
2022/12/10 00:13:48;;;;;;;45.28;23.95;;;;;;;-2.88;100.00;100789.03;5069245;28;20021;-69
2022/12/10 00:16:15;;;;;;;43.65;21.63;;;;;;;-2.82;100.00;100798.19;5069230;28;20414;-69
2022/12/10 00:18:41;;;;;;;36.75;18.63;;;;;;;-2.84;100.00;100792.25;5069129;28;20119;-69
2022/12/10 00:21:09;;;;;;;41.13;21.45;;;;;;;-2.84;100.00;100805.31;5069142;28;20221;-69
2022/12/10 00:23:35;;;;;;;39.00;19.85;;;;;;;-2.96;100.00;100800.03;5070882;28;20465;-69
2022/12/10 00:26:05;;;;;;;45.05;21.63;;;;;;;-2.98;100.00;100809.75;5073035;28;20063;-66
2022/12/10 00:28:32;;;;;;;39.60;19.13;;;;;;;-3.03;100.00;100801.41;5073099;28;20060;-66
2022/12/10 00:31:02;;;;;;;48.03;21.25;;;;;;;-3.03;100.00;100801.41;5072930;28;20028;-66
2022/12/10 00:33:28;;;;;;;36.78;17.60;;;;;;;-3.06;100.00;100796.41;5072882;28;20025;-66
2022/12/10 00:35:53;;;;;;;39.38;19.05;;;;;;;-3.06;100.00;100792.97;5072870;28;20109;-66
2022/12/10 00:38:18;;;;;;;39.67;18.75;;;;;;;-3.08;100.00;100791.28;5072757;28;20078;-66
2022/12/10 00:40:44;;;;;;;40.70;20.27;;;;;;;-3.05;100.00;100799.84;5072431;28;20080;-66
2022/12/10 00:43:09;;;;;;;41.40;22.73;;;;;;;-3.02;100.00;100797.03;5072555;28;20036;-66
2022/12/10 00:45:34;;;;;;;49.50;20.65;;;;;;;-2.99;100.00;100799.41;5072679;28;20048;-66
2022/12/10 00:48:00;;;;;;;46.38;21.67;;;;;;;-2.92;100.00;100798.03;5072575;28;20029;-66
2022/12/10 00:50:25;;;;;;;42.72;20.95;;;;;;;-2.91;100.00;100794.47;5071392;28;20043;-66
2022/12/10 00:52:50;;;;;;;42.30;20.35;;;;;;;-2.95;100.00;100799.06;5072477;28;20178;-66
2022/12/10 00:55:16;;;;;;;43.78;20.63;;;;;;;-2.97;100.00;100798.34;5072493;28;20067;-66
2022/12/10 00:57:41;;;;;;;43.35;21.52;;;;;;;-2.98;100.00;100796.69;5072395;28;20062;-66
2022/12/10 01:00:07;;;;;;;41.95;21.38;;;;;;;-2.99;100.00;100791.56;5072429;28;20028;-66
2022/12/10 01:02:32;;;;;;;41.85;22.27;;;;;;;-3.07;100.00;100781.69;5072284;28;20040;-66
2022/12/10 01:04:58;;;;;;;44.40;21.42;;;;;;;-3.09;100.00;100786.22;5072325;28;20033;-66
2022/12/10 01:07:23;;;;;;;43.65;21.58;;;;;;;-3.11;100.00;100780.25;5072335;28;20032;-66
2022/12/10 01:09:48;;;;;;;44.22;22.90;;;;;;;-3.14;100.00;100773.50;5072015;28;20634;-66
2022/12/10 01:12:13;;;;;;;38.15;20.65;;;;;;;-3.17;100.00;100778.06;5072120;28;20158;-66
2022/12/10 01:14:39;;;;;;;38.28;21.00;;;;;;;-3.20;100.00;100779.13;5072139;28;20115;-66
2022/12/10 01:17:05;;;;;;;41.13;21.67;;;;;;;-3.18;100.00;100789.47;5072116;28;20037;-66
2022/12/10 01:19:32;;;;;;;42.70;18.45;;;;;;;-3.21;100.00;100794.91;5070905;28;20036;-66
2022/12/10 01:21:58;;;;;;;34.50;18.67;;;;;;;-3.23;100.00;100807.22;5071954;28;20472;-66
2022/12/10 01:24:25;;;;;;;38.38;18.60;;;;;;;-3.27;100.00;100804.00;5071980;28;20029;-66
2022/12/10 01:26:51;;;;;;;47.10;23.38;;;;;;;-3.28;100.00;100804.91;5071953;28;20391;-66
2022/12/10 01:29:16;;;;;;;44.45;23.55;;;;;;;-3.29;100.00;100805.88;5071879;28;20025;-68
2022/12/10 01:31:42;;;;;;;40.03;20.95;;;;;;;-3.27;100.00;100801.38;5071823;28;20574;-68
2022/12/10 01:34:11;;;;;;;46.60;24.10;;;;;;;-3.28;100.00;100804.91;5071499;28;20361;-68
2022/12/10 01:36:40;;;;;;;41.60;20.55;;;;;;;-3.28;100.00;100804.09;5054287;28;20032;-68
2022/12/10 01:39:09;;;;;;;39.63;19.45;;;;;;;-3.31;100.00;100803.34;5071719;28;20949;-68
2022/12/10 01:41:48;;;;;;;52.40;22.73;;;;;;;-3.29;100.00;100816.31;5071317;28;20077;-68
2022/12/10 01:44:13;;;;;;;41.88;23.13;;;;;;;-3.26;100.00;100810.88;5071732;28;20391;-68
2022/12/10 01:46:42;;;;;;;40.03;20.92;;;;;;;-3.22;100.00;100816.69;5071507;28;20016;-68
2022/12/10 01:49:13;;;;;;;41.83;20.33;;;;;;;-3.18;100.00;100813.75;5071439;28;20122;-68
2022/12/10 01:51:42;;;;;;;43.33;23.88;;;;;;;-3.16;100.00;100808.44;5071558;28;20115;-68
2022/12/10 01:54:14;;;;;;;49.70;23.88;;;;;;;-3.12;100.00;100802.91;5071410;28;20554;-68
2022/12/10 01:56:44;;;;;;;41.10;20.33;;;;;;;-3.10;100.00;100806.22;5070771;28;20145;-66
2022/12/10 01:59:13;;;;;;;45.88;23.33;;;;;;;-3.08;100.00;100809.56;5070161;28;20400;-66
2022/12/10 02:01:52;;;;;;;48.58;23.58;;;;;;;-3.06;100.00;100812.06;5070313;28;20079;-66
2022/12/10 02:04:48;;;;;;;48.38;24.58;;;;;;;-3.05;100.00;100811.13;5070995;28;20039;-66
2022/12/10 02:07:16;;;;;;;48.05;24.08;;;;;;;-3.03;100.00;100809.22;5070220;28;20070;-66
2022/12/10 02:09:41;;;;;;;48.17;24.00;;;;;;;-3.00;100.00;100808.19;5070875;28;20119;-66
2022/12/10 02:12:36;;;;;;;47.33;25.08;;;;;;;-2.99;100.00;100805.44;5069025;28;20115;-66
2022/12/10 02:15:13;;;;;;;48.15;22.27;;;;;;;-2.97;100.00;100814.00;5066758;28;20059;-66
2022/12/10 02:17:38;;;;;;;48.88;25.25;;;;;;;-2.94;100.00;100816.38;5069970;28;20022;-66
2022/12/10 02:20:29;;;;;;;48.83;20.92;;;;;;;-2.90;100.00;100812.63;5070387;28;20111;-66
2022/12/10 02:23:14;;;;;;;52.40;24.80;;;;;;;-2.86;100.00;100818.44;5070465;28;20489;-66
2022/12/10 02:25:57;;;;;;;41.58;19.77;;;;;;;-2.84;100.00;100816.56;5069852;28;20036;-66
2022/12/10 02:28:41;;;;;;;44.03;20.92;;;;;;;-2.86;100.00;100802.78;5070729;28;20029;-66
2022/12/10 02:31:11;;;;;;;47.85;23.05;;;;;;;-2.81;100.00;100821.56;5070587;28;20027;-66
2022/12/10 02:33:40;;;;;;;45.53;21.83;;;;;;;-2.82;100.00;100822.50;5070469;28;20493;-66
2022/12/10 02:36:07;;;;;;;45.00;22.10;;;;;;;-2.83;100.00;100807.78;5070508;28;20032;-66
2022/12/10 02:38:38;;;;;;;48.45;22.33;;;;;;;-2.76;100.00;100821.22;5070649;28;20360;-66
2022/12/10 02:41:12;;;;;;;55.92;26.92;;;;;;;-2.75;100.00;100818.53;5070183;28;20071;-66
2022/12/10 02:43:38;;;;;;;50.05;26.98;;;;;;;-2.71;100.00;100806.06;5069544;28;20443;-66
2022/12/10 02:46:05;;;;;;;46.97;23.73;;;;;;;-2.67;100.00;100815.34;5069773;28;20063;-66
2022/12/10 02:48:32;;;;;;;50.60;24.77;;;;;;;-2.65;100.00;100814.28;5070440;28;20085;-66
2022/12/10 02:50:58;;;;;;;47.58;23.67;;;;;;;-2.65;100.00;100806.47;5070173;28;20364;-67
2022/12/10 02:53:23;;;;;;;51.45;23.50;;;;;;;-2.67;100.00;100804.91;5070137;28;20058;-67
2022/12/10 02:55:54;;;;;;;41.03;21.33;;;;;;;-2.70;100.00;100810.34;5070012;28;20131;-67
2022/12/10 02:58:34;;;;;;;51.80;28.17;;;;;;;-2.72;100.00;100812.25;5069333;28;20039;-67
2022/12/10 03:01:16;;;;;;;43.58;24.30;;;;;;;-2.75;100.00;100813.31;5069316;28;20161;-67
2022/12/10 03:04:09;;;;;;;45.08;20.00;;;;;;;-2.77;100.00;100815.19;5069162;28;20360;-67
2022/12/10 03:06:52;;;;;;;47.53;24.13;;;;;;;-2.90;100.00;100794.34;5069288;28;20028;-66
2022/12/10 03:09:34;;;;;;;38.88;23.45;;;;;;;-2.84;100.00;100827.00;5069236;28;20024;-67
2022/12/10 03:12:06;;;;;;;40.72;22.00;;;;;;;-2.86;100.00;100818.44;5069197;28;20115;-66
2022/12/10 03:14:33;;;;;;;44.95;22.98;;;;;;;-2.91;100.00;100808.38;5068937;28;20070;-66
2022/12/10 03:17:00;;;;;;;56.15;27.10;;;;;;;-2.93;100.00;100818.06;5069167;28;20032;-66
2022/12/10 03:19:36;;;;;;;48.25;22.98;;;;;;;-2.94;100.00;100815.56;5069161;28;20020;-66
2022/12/10 03:22:03;;;;;;;48.50;24.30;;;;;;;-2.91;100.00;100820.56;5069516;28;20017;-66
2022/12/10 03:24:29;;;;;;;45.05;24.95;;;;;;;-2.89;100.00;100819.50;5069043;28;20508;-66
2022/12/10 03:26:57;;;;;;;46.33;22.60;;;;;;;-2.87;100.00;100812.41;5068789;28;20485;-67
2022/12/10 03:29:27;;;;;;;54.67;26.15;;;;;;;-2.84;100.00;100818.34;5069701;28;20111;-67
2022/12/10 03:31:53;;;;;;;53.22;26.52;;;;;;;-2.83;100.00;100820.81;5069680;28;20077;-66
2022/12/10 03:34:19;;;;;;;51.97;24.17;;;;;;;-2.80;100.00;100818.03;5069645;28;20035;-66
2022/12/10 03:36:45;;;;;;;46.38;23.00;;;;;;;-2.77;100.00;100817.78;5069638;28;20032;-67
2022/12/10 03:39:11;;;;;;;47.78;23.08;;;;;;;-2.74;100.00;100814.97;5069720;28;20036;-67
2022/12/10 03:41:36;;;;;;;45.72;25.60;;;;;;;-2.72;100.00;100820.91;5069473;28;20067;-66
2022/12/10 03:44:02;;;;;;;49.05;21.83;;;;;;;-2.72;100.00;100820.91;5069302;28;20029;-66
2022/12/10 03:46:29;;;;;;;53.10;24.25;;;;;;;-2.70;100.00;100824.25;5069217;28;20037;-66
2022/12/10 03:48:55;;;;;;;42.90;19.13;;;;;;;-2.69;100.00;100825.06;5069431;28;20495;-67
2022/12/10 03:51:21;;;;;;;43.38;23.13;;;;;;;-2.66;100.00;100822.22;5069444;28;20029;-67
2022/12/10 03:53:50;;;;;;;50.05;25.10;;;;;;;-2.66;100.00;100820.44;5069345;28;20052;-67
2022/12/10 03:56:17;;;;;;;54.58;24.42;;;;;;;-2.65;100.00;100822.13;5069456;28;20036;-66
2022/12/10 03:58:42;;;;;;;49.45;24.02;;;;;;;-2.61;100.00;100830.56;5073165;28;20379;-67
2022/12/10 04:01:07;;;;;;;55.55;27.70;;;;;;;-2.59;100.00;100823.44;5072893;28;20025;-66
2022/12/10 04:03:38;;;;;;;49.67;23.98;;;;;;;-2.58;100.00;100832.94;5073299;28;20032;-67
2022/12/10 04:06:06;;;;;;;51.30;25.50;;;;;;;-2.57;100.00;100831.97;5071574;28;20119;-66
2022/12/10 04:08:31;;;;;;;52.15;26.55;;;;;;;-2.56;100.00;100831.06;5072830;28;20478;-67
2022/12/10 04:11:04;;;;;;;48.85;25.48;;;;;;;-2.52;100.00;100829.03;5072595;28;20032;-67
2022/12/10 04:16:26;;;;;;;47.55;23.63;;;;;;;-2.53;100.00;100836.03;5071269;28;20040;-66
2022/12/10 04:18:53;;;;;;;54.55;27.92;;;;;;;-2.51;100.00;100836.78;5071483;28;20044;-66
2022/12/10 04:26:52;;;;;;;52.17;24.52;;;;;;;-2.50;100.00;100832.38;5072527;28;20039;-67
2022/12/10 04:29:23;;;;;;;53.25;28.02;;;;;;;-2.43;100.00;100844.88;5072592;28;20479;-66
2022/12/10 04:31:49;;;;;;;47.97;26.33;;;;;;;-2.41;100.00;100839.56;5072852;28;20028;-66
2022/12/10 04:34:14;;;;;;;49.08;23.63;;;;;;;-2.43;100.00;100834.44;5072809;28;20467;-67
2022/12/10 04:36:40;;;;;;;54.03;26.67;;;;;;;-2.48;100.00;100833.94;5071428;28;20032;-67
2022/12/10 04:39:05;;;;;;;57.83;27.48;;;;;;;-2.42;100.00;100840.47;5072503;28;20040;-67
2022/12/10 04:41:30;;;;;;;55.20;26.23;;;;;;;-2.46;100.00;100833.84;5072438;28;20049;-67
2022/12/10 04:43:56;;;;;;;52.60;23.27;;;;;;;-2.40;100.00;100845.59;5072750;28;20115;-67
2022/12/10 04:46:21;;;;;;;50.08;24.50;;;;;;;-2.38;100.00;100841.94;5072376;28;20063;-66
2022/12/10 04:48:46;;;;;;;48.53;22.77;;;;;;;-2.43;100.00;100831.81;5072181;28;20109;-66
2022/12/10 04:51:12;;;;;;;53.03;22.55;;;;;;;-2.34;100.00;100848.56;5072638;28;20029;-67
2022/12/10 04:53:37;;;;;;;62.15;27.95;;;;;;;-2.32;100.00;100846.69;5072522;28;20454;-66
2022/12/10 04:56:04;;;;;;;53.03;26.98;;;;;;;-2.35;100.00;100839.09;5072510;28;20039;-67
2022/12/10 04:58:30;;;;;;;54.70;26.17;;;;;;;-2.34;100.00;100834.69;5072581;28;20035;-67
2022/12/10 05:01:06;;;;;;;51.25;25.17;;;;;;;-2.29;100.00;100843.84;5071958;28;20553;-68
2022/12/10 05:03:33;;;;;;;56.83;22.83;;;;;;;-2.28;100.00;100848.16;5071660;28;20024;-68
2022/12/10 05:06:03;;;;;;;58.53;27.63;;;;;;;-2.24;100.00;100848.75;5071618;28;20036;-69
2022/12/10 05:08:29;;;;;;;55.42;27.45;;;;;;;-2.24;100.00;100851.34;5070796;28;20698;-69
2022/12/10 05:10:55;;;;;;;56.67;29.02;;;;;;;-2.25;100.00;100855.75;5071627;28;20123;-69
2022/12/10 05:13:20;;;;;;;59.08;26.48;;;;;;;-2.29;100.00;100840.41;5071258;28;20041;-69
2022/12/10 05:15:45;;;;;;;52.45;23.65;;;;;;;-2.23;100.00;100843.41;5071511;28;20024;-69
2022/12/10 05:18:11;;;;;;;49.38;24.80;;;;;;;-2.20;100.00;100844.97;5071490;28;20040;-69
2022/12/10 05:20:36;;;;;;;47.58;19.60;;;;;;;-2.22;100.00;100839.84;5071270;28;20082;-69
2022/12/10 05:25:54;;;;;;;51.30;24.98;;;;;;;-2.23;100.00;100845.16;5070758;28;20039;-69
2022/12/10 05:28:22;;;;;;;48.55;22.77;;;;;;;-2.20;100.00;100842.34;5071477;28;20027;-69
2022/12/10 05:30:48;;;;;;;54.28;23.90;;;;;;;-2.17;100.00;100855.19;5071851;28;20074;-69
2022/12/10 05:33:14;;;;;;;52.90;26.38;;;;;;;-2.15;100.00;100841.97;5071902;28;20020;-69
2022/12/10 05:35:39;;;;;;;50.75;25.95;;;;;;;-2.14;100.00;100848.91;5071783;28;20039;-69
2022/12/10 05:38:05;;;;;;;53.88;24.23;;;;;;;-2.15;100.00;100848.03;5071826;28;20479;-69
2022/12/10 05:40:34;;;;;;;53.33;26.40;;;;;;;-2.19;100.00;100843.19;5071742;28;20505;-69
2022/12/10 05:43:00;;;;;;;62.35;25.73;;;;;;;-2.17;100.00;100849.94;5071497;28;20049;-69
2022/12/10 05:45:25;;;;;;;55.95;27.48;;;;;;;-2.15;100.00;100847.22;5071201;28;20039;-69
2022/12/10 05:47:50;;;;;;;53.22;26.27;;;;;;;-2.18;100.00;100842.22;5071575;28;20036;-69
2022/12/10 05:50:16;;;;;;;57.15;26.00;;;;;;;-2.14;100.00;100854.13;5071644;28;20032;-69
2022/12/10 05:52:41;;;;;;;60.97;28.50;;;;;;;-2.13;100.00;100845.31;5071403;28;20024;-69
2022/12/10 05:55:07;;;;;;;54.20;25.35;;;;;;;-2.12;100.00;100853.06;5071437;28;20471;-69
2022/12/10 05:57:32;;;;;;;52.15;25.13;;;;;;;-2.13;100.00;100855.78;5071352;28;20047;-69
2022/12/10 05:59:57;;;;;;;63.10;27.40;;;;;;;-2.13;100.00;100856.59;5071338;28;20103;-69
2022/12/10 06:02:23;;;;;;;62.63;27.67;;;;;;;-2.14;100.00;100867.19;5071182;28;20082;-69
2022/12/10 06:04:48;;;;;;;52.08;25.10;;;;;;;-2.13;100.00;100861.00;5069816;28;20029;-69
2022/12/10 06:07:13;;;;;;;48.55;23.30;;;;;;;-2.12;100.00;100852.19;5071129;28;20043;-69
2022/12/10 06:09:38;;;;;;;58.60;29.85;;;;;;;-2.11;100.00;100853.88;5069617;28;20038;-69
2022/12/10 06:12:04;;;;;;;53.30;25.45;;;;;;;-2.12;100.00;100857.44;5071153;28;20035;-69
2022/12/10 06:14:30;;;;;;;48.83;19.85;;;;;;;-2.11;100.00;100859.09;5070519;28;20036;-69
2022/12/10 06:16:55;;;;;;;43.85;24.63;;;;;;;-2.10;100.00;100856.38;5070050;28;20123;-69
2022/12/10 06:19:20;;;;;;;56.47;25.23;;;;;;;-2.09;100.00;100850.22;5069367;28;20071;-69
2022/12/10 06:21:45;;;;;;;61.25;24.58;;;;;;;-2.13;100.00;100853.97;5069104;28;20025;-69
2022/12/10 06:24:11;;;;;;;55.17;27.83;;;;;;;-2.13;100.00;100847.94;5070135;28;20036;-69
2022/12/10 06:26:36;;;;;;;52.50;20.88;;;;;;;-2.14;100.00;100854.13;5070085;28;20124;-69
2022/12/10 06:29:01;;;;;;;53.45;25.50;;;;;;;-2.14;100.00;100857.56;5068809;28;20059;-69
2022/12/10 06:31:27;;;;;;;57.95;27.13;;;;;;;-2.13;100.00;100863.63;5069981;28;20051;-69
2022/12/10 06:33:53;;;;;;;51.92;23.60;;;;;;;-2.12;100.00;100863.50;5070568;28;20039;-69
2022/12/10 06:36:19;;;;;;;55.97;25.33;;;;;;;-2.14;100.00;100875.03;5070475;28;20533;-69
2022/12/10 06:38:45;;;;;;;45.67;23.67;;;;;;;-2.13;100.00;100874.06;5070230;28;20033;-69
2022/12/10 06:41:13;;;;;;;47.85;22.75;;;;;;;-2.12;100.00;100873.09;5070083;28;20095;-69
2022/12/10 06:43:38;;;;;;;45.10;21.38;;;;;;;-2.17;100.00;100862.16;5070239;28;20056;-69
2022/12/10 06:46:12;;;;;;;53.67;26.77;;;;;;;-2.16;100.00;100877.72;5070488;28;20132;-69
2022/12/10 06:48:38;;;;;;;60.53;26.92;;;;;;;-2.16;100.00;100877.72;5069715;28;20028;-69
2022/12/10 06:51:05;;;;;;;55.13;27.02;;;;;;;-2.12;100.00;100883.56;5070172;28;20482;-69
2022/12/10 06:53:31;;;;;;;55.03;23.58;;;;;;;-2.12;100.00;100884.41;5070344;28;20032;-69
2022/12/10 06:55:59;;;;;;;56.67;24.15;;;;;;;-2.12;100.00;100888.78;5070207;28;20379;-69
2022/12/10 06:58:24;;;;;;;53.75;24.63;;;;;;;-2.14;100.00;100886.28;5070148;28;20111;-69
2022/12/10 07:00:49;;;;;;;53.45;24.05;;;;;;;-2.16;100.00;100882.13;5069614;28;20123;-69
2022/12/10 07:03:15;;;;;;;47.50;21.08;;;;;;;-2.18;100.00;100877.00;5069717;28;20032;-69
2022/12/10 07:05:40;;;;;;;46.97;21.50;;;;;;;-2.12;100.00;100878.31;5069360;28;20081;-69
2022/12/10 07:08:05;;;;;;;62.05;25.40;;;;;;;-2.11;100.00;100883.44;5069389;28;20024;-69
2022/12/10 07:10:30;;;;;;;60.83;25.02;;;;;;;-2.12;100.00;100888.78;5069527;28;20028;-69
2022/12/10 07:12:56;;;;;;;52.40;24.67;;;;;;;-2.12;100.00;100888.78;5069713;28;20547;-69
2022/12/10 07:15:23;;;;;;;53.60;22.05;;;;;;;-2.13;100.00;100892.34;5069638;28;20471;-69
2022/12/10 07:17:50;;;;;;;44.35;22.95;;;;;;;-2.13;100.00;100892.34;5069940;28;20107;-69
2022/12/10 07:20:15;;;;;;;50.00;24.38;;;;;;;-2.12;100.00;100894.00;5068883;28;20399;-69
2022/12/10 07:22:40;;;;;;;54.33;25.85;;;;;;;-2.12;100.00;100899.22;5068809;28;20037;-69
2022/12/10 07:25:06;;;;;;;55.47;23.80;;;;;;;-2.12;100.00;100902.69;5069230;28;20028;-69
2022/12/10 07:27:31;;;;;;;50.22;23.65;;;;;;;-2.13;100.00;100908.84;5069170;28;20411;-69
2022/12/10 07:29:57;;;;;;;48.38;21.92;;;;;;;-2.14;100.00;100915.03;5069322;28;20020;-69
2022/12/10 07:32:23;;;;;;;54.33;21.77;;;;;;;-2.13;100.00;100908.03;5069196;28;20385;-69
2022/12/10 07:34:48;;;;;;;60.03;26.35;;;;;;;-2.14;100.00;100917.66;5069657;28;20032;-69
2022/12/10 07:37:13;;;;;;;53.92;26.35;;;;;;;-2.12;100.00;100914.91;5069447;28;20127;-69
2022/12/10 07:39:39;;;;;;;55.17;24.08;;;;;;;-2.13;100.00;100914.06;5069488;28;20467;-69
2022/12/10 07:42:05;;;;;;;53.08;22.15;;;;;;;-2.12;100.00;100905.31;5068082;28;20466;-69
2022/12/10 07:44:30;;;;;;;54.83;25.75;;;;;;;-2.11;100.00;100922.66;5069584;28;20040;-69
2022/12/10 07:46:56;;;;;;;57.95;21.25;;;;;;;-2.12;100.00;100926.22;5069531;28;20487;-69
2022/12/10 07:49:21;;;;;;;49.67;23.52;;;;;;;-2.11;100.00;100927.03;5069579;28;20123;-69
2022/12/10 07:51:48;;;;;;;61.65;23.75;;;;;;;-2.17;100.00;100920.50;5068703;28;20053;-69
2022/12/10 07:54:14;;;;;;;59.75;26.85;;;;;;;-2.11;100.00;100929.66;5069250;28;20111;-69
2022/12/10 07:56:40;;;;;;;54.67;27.13;;;;;;;-2.10;100.00;100932.13;5068787;28;20437;-69
2022/12/10 07:59:06;;;;;;;56.78;24.13;;;;;;;-2.11;100.00;100937.50;5069390;28;20020;-69
2022/12/10 08:01:32;;;;;;;49.40;22.20;;;;;;;-2.10;100.00;100942.59;5069378;28;20450;-69
2022/12/10 08:03:57;;;;;;;53.65;23.60;;;;;;;-2.11;100.00;100940.94;5069415;28;20124;-69
2022/12/10 08:06:24;;;;;;;53.33;26.65;;;;;;;-2.15;100.00;100942.09;5068120;28;20440;-69
2022/12/10 08:08:50;;;;;;;52.88;22.70;;;;;;;-2.11;100.00;100947.94;5068501;28;20021;-68
2022/12/10 08:11:18;;;;;;;58.00;27.30;;;;;;;-2.11;100.00;100946.16;5068359;28;20025;-69
2022/12/10 08:13:44;;;;;;;59.92;27.20;;;;;;;-2.10;100.00;100947.81;5068430;28;20037;-69
2022/12/10 08:16:11;;;;;;;61.47;28.23;;;;;;;-2.02;100.00;100952.47;5068233;28;20028;-69
2022/12/10 08:18:37;;;;;;;55.65;24.73;;;;;;;-2.01;100.00;100951.56;5068530;28;20028;-69
2022/12/10 08:21:17;;;;;;;67.28;22.77;;;;;;;-1.99;100.00;100954.91;5068510;28;20958;-69
2022/12/10 08:23:43;;;;;;;54.92;26.48;;;;;;;-1.97;100.00;100966.03;5068843;28;20040;-68
2022/12/10 08:26:16;;;;;;;60.47;26.67;;;;;;;-1.92;100.00;100963.94;5068126;28;20029;-67
2022/12/10 08:28:42;;;;;;;66.55;31.85;;;;;;;-1.95;100.00;100955.50;5068323;28;20032;-69
2022/12/10 08:31:09;;;;;;;57.92;29.23;;;;;;;-1.88;100.00;100962.75;5068187;28;20043;-69
2022/12/10 08:33:36;;;;;;;72.15;30.13;;;;;;;-1.88;100.00;100964.56;5068005;28;20074;-69
2022/12/10 08:36:03;;;;;;;63.38;28.35;;;;;;;-1.86;100.00;100967.88;5068715;28;20039;-69
2022/12/10 08:38:29;;;;;;;59.75;28.48;;;;;;;-1.84;100.00;100972.03;5069015;28;20554;-69
2022/12/10 08:40:54;;;;;;;57.90;25.50;;;;;;;-1.84;100.00;100974.66;5068872;28;20028;-68
2022/12/10 08:43:20;;;;;;;54.53;26.58;;;;;;;-1.81;100.00;100981.44;5068792;28;20064;-68
2022/12/10 08:45:45;;;;;;;52.35;25.77;;;;;;;-1.81;100.00;100973.59;5072335;28;20111;-68
2022/12/10 08:48:11;;;;;;;60.08;27.15;;;;;;;-1.78;100.00;100971.59;5071089;28;20060;-68
2022/12/10 08:50:38;;;;;;;56.80;25.38;;;;;;;-1.79;100.00;100979.53;5071949;28;20020;-68
2022/12/10 08:53:03;;;;;;;52.50;26.20;;;;;;;-1.79;100.00;100980.38;5071885;28;20408;-68
2022/12/10 08:55:29;;;;;;;67.20;27.50;;;;;;;-1.77;100.00;100981.09;5072457;28;20054;-68
2022/12/10 08:57:56;;;;;;;61.45;24.45;;;;;;;-1.77;100.00;100986.31;5072516;28;20028;-69
2022/12/10 09:00:21;;;;;;;56.25;18.25;;;;;;;-1.81;100.00;100979.66;5072368;28;20024;-69
2022/12/10 09:02:47;;;;;;;57.50;24.23;;;;;;;-1.83;100.00;100983.34;5072272;28;20169;-69
2022/12/10 09:05:13;;;;;;;57.47;22.17;;;;;;;-1.87;100.00;100985.34;5072376;28;20037;-69
2022/12/10 09:07:38;;;;;;;91.60;25.25;;;;;;;-1.90;100.00;100985.56;5072315;28;20033;-69
2022/12/10 09:10:04;;;;;;;53.25;22.95;;;;;;;-1.87;100.00;100981.88;5072176;28;20111;-69
2022/12/10 09:12:29;;;;;;;56.70;27.23;;;;;;;-1.87;100.00;100984.50;5072172;28;20031;-69
2022/12/10 09:14:55;;;;;;;56.05;25.83;;;;;;;-1.84;100.00;100989.50;5072017;28;20020;-69
2022/12/10 09:17:21;;;;;;;60.25;24.80;;;;;;;-1.84;100.00;100992.13;5072366;28;20035;-69
2022/12/10 09:19:46;;;;;;;60.20;27.10;;;;;;;-1.84;100.00;100992.94;5072114;28;20364;-69
2022/12/10 09:22:12;;;;;;;59.50;24.13;;;;;;;-1.82;100.00;100998.06;5071905;28;20125;-69
2022/12/10 09:24:37;;;;;;;49.17;22.70;;;;;;;-1.79;100.00;100993.44;5071768;28;20060;-69
2022/12/10 09:27:03;;;;;;;58.85;26.45;;;;;;;-1.75;100.00;100999.28;5071931;28;20028;-69
2022/12/10 09:29:28;;;;;;;57.80;22.65;;;;;;;-1.75;100.00;101007.13;5071694;28;20077;-69
2022/12/10 09:31:54;;;;;;;53.33;22.63;;;;;;;-1.74;100.00;101003.56;5071793;28;20059;-69
2022/12/10 09:34:20;;;;;;;54.10;24.05;;;;;;;-1.76;100.00;101002.84;5071845;28;20024;-69
2022/12/10 09:36:46;;;;;;;54.95;21.35;;;;;;;-1.75;100.00;101009.75;5071763;28;20537;-69
2022/12/10 09:39:12;;;;;;;63.20;26.90;;;;;;;-1.77;100.00;101011.63;5071778;28;20036;-69
2022/12/10 09:42:21;;;;;;;55.10;21.05;;;;;;;-1.73;100.00;101012.22;5071437;28;20041;-69
2022/12/10 09:44:52;;;;;;;54.47;21.13;;;;;;;-1.71;100.00;101012.97;5061119;28;20059;-69
2022/12/10 09:47:18;;;;;;;58.25;23.33;;;;;;;-1.70;100.00;101018.09;5071645;28;20090;-69
2022/12/10 09:49:59;;;;;;;55.83;24.85;;;;;;;-1.68;100.00;101010.13;5071547;28;20029;-69
2022/12/10 09:52:29;;;;;;;50.95;21.33;;;;;;;-1.67;100.00;101019.66;5071455;28;20372;-69
2022/12/10 09:55:03;;;;;;;53.70;25.73;;;;;;;-1.69;100.00;101016.31;5071121;28;20082;-69
2022/12/10 09:57:41;;;;;;;55.40;27.05;;;;;;;-1.67;100.00;101014.41;5071382;28;20093;-69
2022/12/10 10:00:19;;;;;;;55.17;24.02;;;;;;;-1.64;100.00;101014.19;5071238;28;20467;-68
2022/12/10 10:02:46;;;;;;;62.65;25.77;;;;;;;-1.68;100.00;101012.72;5071152;28;20038;-69
2022/12/10 10:05:20;;;;;;;55.83;23.52;;;;;;;-1.64;100.00;101022.84;5071167;28;20063;-69
2022/12/10 10:07:51;;;;;;;64.60;28.02;;;;;;;-1.67;100.00;101011.81;5071185;28;20484;-69
2022/12/10 10:10:27;;;;;;;51.22;20.90;;;;;;;-1.66;100.00;101016.06;5070934;28;20029;-69
2022/12/10 10:13:11;;;;;;;60.72;24.42;;;;;;;-1.62;100.00;101022.75;5071157;28;20108;-69
2022/12/10 10:15:40;;;;;;;63.03;25.45;;;;;;;-1.61;100.00;101029.63;5070786;28;20024;-69
2022/12/10 10:18:26;;;;;;;63.83;26.55;;;;;;;-1.59;100.00;101030.38;5070895;28;20474;-69
2022/12/10 10:20:51;;;;;;;51.20;22.33;;;;;;;-1.55;100.00;101035.25;5070796;28;20024;-70
2022/12/10 10:23:17;;;;;;;59.53;24.58;;;;;;;-1.55;100.00;101029.19;5070886;28;20028;-68
2022/12/10 10:25:43;;;;;;;58.40;25.17;;;;;;;-1.55;100.00;101032.66;5070721;28;20154;-68
2022/12/10 10:28:21;;;;;;;53.47;19.17;;;;;;;-1.52;100.00;101035.97;5070806;28;20530;-69
2022/12/10 10:30:47;;;;;;;54.40;21.90;;;;;;;-1.56;100.00;101028.34;5070582;28;20032;-69
2022/12/10 10:33:15;;;;;;;53.00;22.98;;;;;;;-1.57;100.00;101036.31;5070600;28;20102;-69
2022/12/10 10:35:48;;;;;;;50.90;23.15;;;;;;;-1.57;100.00;101031.09;5070426;28;20033;-71
2022/12/10 10:38:18;;;;;;;54.58;21.92;;;;;;;-1.59;100.00;101027.75;5064089;28;20016;-69
2022/12/10 10:40:46;;;;;;;52.60;22.87;;;;;;;-1.60;100.00;101037.38;5064232;28;20028;-69
2022/12/10 10:43:20;;;;;;;56.05;23.20;;;;;;;-1.60;100.00;101021.69;5064341;28;20037;-69
2022/12/10 10:45:59;;;;;;;59.67;25.05;;;;;;;-1.56;100.00;101023.13;5063729;28;20045;-72
2022/12/10 10:48:26;;;;;;;53.08;21.38;;;;;;;-1.60;100.00;101026.06;5063980;28;20028;-71
2022/12/10 10:50:54;;;;;;;58.00;23.48;;;;;;;-1.56;100.00;101024.91;5063127;28;20522;-71
2022/12/10 10:53:30;;;;;;;56.25;26.95;;;;;;;-1.50;100.00;101028.84;5064190;28;20031;-71
2022/12/10 10:55:59;;;;;;;58.17;23.85;;;;;;;-1.45;100.00;101022.31;5064151;28;20107;-70
2022/12/10 10:58:25;;;;;;;54.13;23.85;;;;;;;-1.38;100.00;101015.69;5063896;28;20072;-70
2022/12/10 11:01:03;;;;;;;42.83;21.80;;;;;;;-1.35;100.00;101017.25;5063788;28;20115;-70
2022/12/10 11:03:30;;;;;;;51.15;20.92;;;;;;;-1.42;100.00;101003.78;5063225;28;20052;-72
2022/12/10 11:05:58;;;;;;;52.65;21.70;;;;;;;-1.28;100.00;101014.97;5064161;28;20115;-71
2022/12/10 11:08:27;;;;;;;48.80;22.20;;;;;;;-1.25;100.00;101018.22;5060605;28;20060;-71
2022/12/10 11:11:06;;;;;;;68.55;27.83;;;;;;;-1.24;100.00;101014.63;5063609;28;20043;-70
2022/12/10 11:13:35;;;;;;;61.78;27.65;;;;;;;-1.28;100.00;101002.75;5063896;28;20028;-69
2022/12/10 11:16:20;;;;;;;48.00;22.70;;;;;;;-1.26;100.00;101003.44;5063467;28;20044;-71
2022/12/10 11:19:01;;;;;;;66.38;24.17;;;;;;;-1.22;100.00;101015.34;5063632;28;20173;-67